sensor_id;sensor_type;location;lat;lon;timestamp;pressure;altitude;pressure_sealevel;temperature;humidity
12799;BME280;19250;42.646;26.980;2023-01-28T00:00:38;98233.59;;;5.67;100.00
12799;BME280;19250;42.646;26.980;2023-01-28T00:03:05;98240.63;;;5.48;100.00
12799;BME280;19250;42.646;26.980;2023-01-28T00:05:32;98237.06;;;5.67;100.00
12799;BME280;19250;42.646;26.980;2023-01-28T00:07:59;98242.78;;;5.63;100.00
12799;BME280;19250;42.646;26.980;2023-01-28T00:10:26;98243.34;;;5.57;100.00
12799;BME280;19250;42.646;26.980;2023-01-28T00:12:54;98244.88;;;5.69;100.00
12799;BME280;19250;42.646;26.980;2023-01-28T00:15:21;98249.63;;;5.92;100.00
12799;BME280;19250;42.646;26.980;2023-01-28T00:17:51;98251.22;;;6.03;100.00
12799;BME280;19250;42.646;26.980;2023-01-28T00:20:18;98169.50;;;5.28;100.00
12799;BME280;19250;42.646;26.980;2023-01-28T00:22:46;98255.97;;;5.99;100.00
12799;BME280;19250;42.646;26.980;2023-01-28T00:25:14;98262.91;;;6.10;100.00
12799;BME280;19250;42.646;26.980;2023-01-28T00:27:42;98267.38;;;6.27;100.00
12799;BME280;19250;42.646;26.980;2023-01-28T00:30:10;98262.25;;;6.26;100.00
12799;BME280;19250;42.646;26.980;2023-01-28T00:32:38;98271.50;;;6.12;100.00
12799;BME280;19250;42.646;26.980;2023-01-28T00:35:07;98273.88;;;5.88;100.00
12799;BME280;19250;42.646;26.980;2023-01-28T00:37:35;98278.44;;;5.95;100.00
12799;BME280;19250;42.646;26.980;2023-01-28T00:40:03;98275.75;;;6.05;100.00
12799;BME280;19250;42.646;26.980;2023-01-28T00:42:30;98280.91;;;6.24;100.00
12799;BME280;19250;42.646;26.980;2023-01-28T00:44:57;98285.03;;;6.09;100.00
12799;BME280;19250;42.646;26.980;2023-01-28T00:47:25;98290.59;;;6.33;100.00
12799;BME280;19250;42.646;26.980;2023-01-28T00:49:52;98282.63;;;6.16;100.00
12799;BME280;19250;42.646;26.980;2023-01-28T00:52:21;98286.63;;;6.02;100.00
12799;BME280;19250;42.646;26.980;2023-01-28T00:54:48;98293.91;;;5.90;100.00
12799;BME280;19250;42.646;26.980;2023-01-28T00:57:15;98291.41;;;5.89;100.00
12799;BME280;19250;42.646;26.980;2023-01-28T00:59:42;98290.53;;;5.98;100.00
12799;BME280;19250;42.646;26.980;2023-01-28T01:02:10;98284.75;;;6.12;100.00
12799;BME280;19250;42.646;26.980;2023-01-28T01:04:40;98171.00;;;5.30;100.00
12799;BME280;19250;42.646;26.980;2023-01-28T01:07:22;98283.28;;;6.00;100.00
12799;BME280;19250;42.646;26.980;2023-01-28T01:09:59;98284.44;;;5.88;100.00
12799;BME280;19250;42.646;26.980;2023-01-28T01:12:27;98283.06;;;5.84;100.00
12799;BME280;19250;42.646;26.980;2023-01-28T01:14:54;98280.94;;;5.60;100.00
12799;BME280;19250;42.646;26.980;2023-01-28T01:17:21;98281.22;;;5.57;100.00
12799;BME280;19250;42.646;26.980;2023-01-28T01:19:49;98269.72;;;5.76;100.00
12799;BME280;19250;42.646;26.980;2023-01-28T01:22:16;98277.28;;;5.71;100.00
12799;BME280;19250;42.646;26.980;2023-01-28T01:24:46;98270.78;;;5.56;100.00
12799;BME280;19250;42.646;26.980;2023-01-28T01:27:13;98269.50;;;5.60;100.00
12799;BME280;19250;42.646;26.980;2023-01-28T01:29:40;98278.84;;;5.54;100.00
12799;BME280;19250;42.646;26.980;2023-01-28T01:32:08;98272.13;;;5.32;100.00
12799;BME280;19250;42.646;26.980;2023-01-28T01:34:35;98278.16;;;5.06;100.00
12799;BME280;19250;42.646;26.980;2023-01-28T01:37:02;98268.22;;;5.36;100.00
12799;BME280;19250;42.646;26.980;2023-01-28T01:39:31;98267.31;;;5.09;100.00
12799;BME280;19250;42.646;26.980;2023-01-28T01:41:59;98277.75;;;5.10;100.00
12799;BME280;19250;42.646;26.980;2023-01-28T01:44:51;98272.19;;;5.04;100.00
12799;BME280;19250;42.646;26.980;2023-01-28T01:47:21;98275.53;;;4.96;100.00
12799;BME280;19250;42.646;26.980;2023-01-28T01:49:50;98281.53;;;4.69;100.00
12799;BME280;19250;42.646;26.980;2023-01-28T01:52:22;98284.47;;;4.57;100.00
12799;BME280;19250;42.646;26.980;2023-01-28T01:54:53;98283.22;;;4.61;100.00
12799;BME280;19250;42.646;26.980;2023-01-28T01:57:28;98282.94;;;4.64;100.00
12799;BME280;19250;42.646;26.980;2023-01-28T01:59:57;98280.56;;;4.61;100.00
12799;BME280;19250;42.646;26.980;2023-01-28T02:02:32;98288.91;;;4.75;100.00
12799;BME280;19250;42.646;26.980;2023-01-28T02:05:02;98295.13;;;5.03;100.00
12799;BME280;19250;42.646;26.980;2023-01-28T02:07:30;98293.06;;;4.97;100.00
12799;BME280;19250;42.646;26.980;2023-01-28T02:09:57;98292.22;;;4.97;100.00
12799;BME280;19250;42.646;26.980;2023-01-28T02:12:29;98292.94;;;4.79;100.00
12799;BME280;19250;42.646;26.980;2023-01-28T02:15:01;98294.75;;;4.79;100.00
12799;BME280;19250;42.646;26.980;2023-01-28T02:17:30;98293.06;;;4.78;100.00
12799;BME280;19250;42.646;26.980;2023-01-28T02:19:59;98300.03;;;4.79;100.00
12799;BME280;19250;42.646;26.980;2023-01-28T02:22:57;98303.63;;;4.49;100.00
12799;BME280;19250;42.646;26.980;2023-01-28T02:26:04;98310.00;;;4.27;100.00
12799;BME280;19250;42.646;26.980;2023-01-28T02:28:40;98223.97;;;3.87;100.00
12799;BME280;19250;42.646;26.980;2023-01-28T02:31:15;98307.66;;;4.53;100.00
12799;BME280;19250;42.646;26.980;2023-01-28T02:33:51;98310.84;;;4.57;100.00
12799;BME280;19250;42.646;26.980;2023-01-28T02:36:27;98305.97;;;4.33;100.00
12799;BME280;19250;42.646;26.980;2023-01-28T02:39:00;98306.94;;;4.42;100.00
12799;BME280;19250;42.646;26.980;2023-01-28T02:41:32;98306.13;;;4.51;100.00
12799;BME280;19250;42.646;26.980;2023-01-28T02:44:02;98307.78;;;4.32;100.00
12799;BME280;19250;42.646;26.980;2023-01-28T02:46:34;98314.59;;;4.54;100.00
12799;BME280;19250;42.646;26.980;2023-01-28T02:49:22;98302.22;;;4.45;100.00
12799;BME280;19250;42.646;26.980;2023-01-28T02:52:03;98301.28;;;4.46;100.00
12799;BME280;19250;42.646;26.980;2023-01-28T02:54:41;98302.50;;;4.32;100.00
12799;BME280;19250;42.646;26.980;2023-01-28T02:57:21;98300.13;;;4.29;100.00
12799;BME280;19250;42.646;26.980;2023-01-28T03:00:00;98308.16;;;4.18;100.00
12799;BME280;19250;42.646;26.980;2023-01-28T03:02:33;98295.41;;;4.23;100.00
12799;BME280;19250;42.646;26.980;2023-01-28T03:05:06;98302.75;;;4.29;100.00
12799;BME280;19250;42.646;26.980;2023-01-28T03:07:37;98302.34;;;4.24;100.00
12799;BME280;19250;42.646;26.980;2023-01-28T03:10:07;98309.16;;;4.27;100.00
12799;BME280;19250;42.646;26.980;2023-01-28T03:12:35;98305.53;;;4.18;100.00
12799;BME280;19250;42.646;26.980;2023-01-28T03:15:24;98324.09;;;4.07;100.00
12799;BME280;19250;42.646;26.980;2023-01-28T03:18:14;98318.84;;;3.77;100.00
12799;BME280;19250;42.646;26.980;2023-01-28T03:21:04;98328.25;;;4.10;100.00
12799;BME280;19250;42.646;26.980;2023-01-28T03:23:53;98292.16;;;3.91;100.00
12799;BME280;19250;42.646;26.980;2023-01-28T03:26:44;98325.44;;;4.42;100.00
12799;BME280;19250;42.646;26.980;2023-01-28T03:29:32;98201.25;;;3.46;100.00
12799;BME280;19250;42.646;26.980;2023-01-28T03:32:20;98323.84;;;4.20;100.00
12799;BME280;19250;42.646;26.980;2023-01-28T03:35:07;98314.03;;;3.92;100.00
12799;BME280;19250;42.646;26.980;2023-01-28T03:37:53;98258.59;;;3.63;100.00
12799;BME280;19250;42.646;26.980;2023-01-28T03:40:25;98335.97;;;3.92;100.00
12799;BME280;19250;42.646;26.980;2023-01-28T03:42:52;98333.84;;;3.76;100.00
12799;BME280;19250;42.646;26.980;2023-01-28T03:45:21;98261.91;;;3.55;100.00
12799;BME280;19250;42.646;26.980;2023-01-28T03:47:48;98336.56;;;3.96;100.00
12799;BME280;19250;42.646;26.980;2023-01-28T03:50:16;98331.69;;;3.61;100.00
12799;BME280;19250;42.646;26.980;2023-01-28T03:52:43;98326.22;;;3.83;100.00
12799;BME280;19250;42.646;26.980;2023-01-28T03:55:10;98326.13;;;3.84;100.00
12799;BME280;19250;42.646;26.980;2023-01-28T03:57:39;98329.66;;;3.74;100.00
12799;BME280;19250;42.646;26.980;2023-01-28T04:00:07;98330.56;;;3.84;100.00
12799;BME280;19250;42.646;26.980;2023-01-28T04:02:36;98340.41;;;3.92;100.00
12799;BME280;19250;42.646;26.980;2023-01-28T04:05:08;98349.09;;;4.03;100.00
12799;BME280;19250;42.646;26.980;2023-01-28T04:07:38;98344.97;;;3.80;100.00
12799;BME280;19250;42.646;26.980;2023-01-28T04:10:06;98355.22;;;3.53;100.00
12799;BME280;19250;42.646;26.980;2023-01-28T04:12:34;98352.88;;;3.80;100.00
12799;BME280;19250;42.646;26.980;2023-01-28T04:15:04;98355.59;;;3.69;100.00
12799;BME280;19250;42.646;26.980;2023-01-28T04:17:42;98361.09;;;3.87;100.00
12799;BME280;19250;42.646;26.980;2023-01-28T04:20:12;98358.09;;;3.70;100.00
12799;BME280;19250;42.646;26.980;2023-01-28T04:22:39;98362.34;;;3.62;100.00
12799;BME280;19250;42.646;26.980;2023-01-28T04:25:08;98366.13;;;3.18;100.00
12799;BME280;19250;42.646;26.980;2023-01-28T04:27:35;98372.19;;;3.60;100.00
12799;BME280;19250;42.646;26.980;2023-01-28T04:30:20;98375.00;;;3.68;100.00
12799;BME280;19250;42.646;26.980;2023-01-28T04:32:47;98385.56;;;3.68;100.00
12799;BME280;19250;42.646;26.980;2023-01-28T04:35:16;98275.88;;;2.95;100.00
12799;BME280;19250;42.646;26.980;2023-01-28T04:37:44;98368.41;;;3.53;100.00
12799;BME280;19250;42.646;26.980;2023-01-28T04:40:12;98388.94;;;3.79;100.00
12799;BME280;19250;42.646;26.980;2023-01-28T04:42:39;98388.38;;;4.06;100.00
12799;BME280;19250;42.646;26.980;2023-01-28T04:45:07;98393.09;;;4.03;100.00
12799;BME280;19250;42.646;26.980;2023-01-28T04:47:34;98402.88;;;4.21;100.00
12799;BME280;19250;42.646;26.980;2023-01-28T04:50:02;98408.81;;;3.83;100.00
12799;BME280;19250;42.646;26.980;2023-01-28T04:52:30;98412.13;;;3.76;100.00
12799;BME280;19250;42.646;26.980;2023-01-28T04:54:58;98414.31;;;4.01;100.00
12799;BME280;19250;42.646;26.980;2023-01-28T04:57:25;98418.22;;;4.07;100.00
12799;BME280;19250;42.646;26.980;2023-01-28T04:59:52;98415.84;;;4.04;100.00
12799;BME280;19250;42.646;26.980;2023-01-28T05:02:20;98418.41;;;3.84;100.00
12799;BME280;19250;42.646;26.980;2023-01-28T05:04:47;98420.28;;;3.73;100.00
12799;BME280;19250;42.646;26.980;2023-01-28T05:07:14;98423.09;;;3.81;100.00
12799;BME280;19250;42.646;26.980;2023-01-28T05:09:43;98403.47;;;3.74;100.00
12799;BME280;19250;42.646;26.980;2023-01-28T05:12:10;98424.78;;;3.92;100.00
12799;BME280;19250;42.646;26.980;2023-01-28T05:14:37;98435.41;;;4.01;100.00
12799;BME280;19250;42.646;26.980;2023-01-28T05:17:04;98439.34;;;4.16;100.00
12799;BME280;19250;42.646;26.980;2023-01-28T05:19:31;98449.47;;;3.81;100.00
12799;BME280;19250;42.646;26.980;2023-01-28T05:21:59;98447.97;;;3.67;100.00
12799;BME280;19250;42.646;26.980;2023-01-28T05:24:26;98450.16;;;3.83;100.00
12799;BME280;19250;42.646;26.980;2023-01-28T05:26:54;98451.06;;;4.23;100.00
12799;BME280;19250;42.646;26.980;2023-01-28T05:29:22;98446.03;;;4.20;100.00
12799;BME280;19250;42.646;26.980;2023-01-28T05:31:49;98460.59;;;3.64;100.00
12799;BME280;19250;42.646;26.980;2023-01-28T05:34:16;98458.16;;;3.72;100.00
12799;BME280;19250;42.646;26.980;2023-01-28T05:36:43;98454.66;;;3.71;100.00
12799;BME280;19250;42.646;26.980;2023-01-28T05:39:11;98446.16;;;3.89;100.00
12799;BME280;19250;42.646;26.980;2023-01-28T05:41:38;98467.03;;;4.01;100.00
12799;BME280;19250;42.646;26.980;2023-01-28T05:44:06;98470.31;;;4.14;100.00
12799;BME280;19250;42.646;26.980;2023-01-28T05:46:34;98476.22;;;3.97;100.00
12799;BME280;19250;42.646;26.980;2023-01-28T05:49:01;98479.16;;;3.83;100.00
12799;BME280;19250;42.646;26.980;2023-01-28T05:51:28;98481.16;;;3.91;100.00
12799;BME280;19250;42.646;26.980;2023-01-28T05:53:55;98480.75;;;3.95;100.00
12799;BME280;19250;42.646;26.980;2023-01-28T05:56:22;98483.59;;;3.82;100.00
12799;BME280;19250;42.646;26.980;2023-01-28T05:58:50;98493.06;;;3.85;100.00
12799;BME280;19250;42.646;26.980;2023-01-28T06:01:18;98498.22;;;4.17;100.00
12799;BME280;19250;42.646;26.980;2023-01-28T06:03:46;98490.19;;;4.18;100.00
12799;BME280;19250;42.646;26.980;2023-01-28T06:06:14;98407.16;;;3.62;100.00
12799;BME280;19250;42.646;26.980;2023-01-28T06:08:41;98512.03;;;3.79;100.00
12799;BME280;19250;42.646;26.980;2023-01-28T06:11:08;98517.16;;;3.80;100.00
12799;BME280;19250;42.646;26.980;2023-01-28T06:13:35;98518.44;;;3.65;100.00
12799;BME280;19250;42.646;26.980;2023-01-28T06:16:04;98517.94;;;3.92;100.00
12799;BME280;19250;42.646;26.980;2023-01-28T06:18:32;98523.28;;;4.02;100.00
12799;BME280;19250;42.646;26.980;2023-01-28T06:21:00;98523.09;;;3.73;100.00
12799;BME280;19250;42.646;26.980;2023-01-28T06:23:27;98527.06;;;3.67;100.00
12799;BME280;19250;42.646;26.980;2023-01-28T06:25:55;98515.16;;;3.52;100.00
12799;BME280;19250;42.646;26.980;2023-01-28T06:28:22;98524.91;;;3.61;100.00
12799;BME280;19250;42.646;26.980;2023-01-28T06:30:51;98539.34;;;3.78;100.00
12799;BME280;19250;42.646;26.980;2023-01-28T06:33:19;98551.84;;;3.76;100.00
12799;BME280;19250;42.646;26.980;2023-01-28T06:35:48;98570.28;;;3.76;100.00
12799;BME280;19250;42.646;26.980;2023-01-28T06:38:15;98562.25;;;3.98;100.00
12799;BME280;19250;42.646;26.980;2023-01-28T06:40:42;98549.81;;;4.10;100.00
12799;BME280;19250;42.646;26.980;2023-01-28T06:43:10;98561.38;;;3.88;100.00
12799;BME280;19250;42.646;26.980;2023-01-28T06:45:37;98531.63;;;3.65;100.00
12799;BME280;19250;42.646;26.980;2023-01-28T06:48:04;98554.59;;;3.74;100.00
12799;BME280;19250;42.646;26.980;2023-01-28T06:50:31;98563.75;;;3.91;100.00
12799;BME280;19250;42.646;26.980;2023-01-28T06:53:00;98562.75;;;3.92;100.00
12799;BME280;19250;42.646;26.980;2023-01-28T06:55:27;98571.00;;;3.99;100.00
12799;BME280;19250;42.646;26.980;2023-01-28T06:57:54;98569.38;;;4.07;100.00
12799;BME280;19250;42.646;26.980;2023-01-28T07:00:22;98570.84;;;3.79;100.00
12799;BME280;19250;42.646;26.980;2023-01-28T07:02:49;98570.75;;;3.81;100.00
12799;BME280;19250;42.646;26.980;2023-01-28T07:05:16;98581.84;;;3.64;100.00
12799;BME280;19250;42.646;26.980;2023-01-28T07:07:43;98504.81;;;3.28;100.00
12799;BME280;19250;42.646;26.980;2023-01-28T07:10:12;98580.06;;;3.85;100.00
12799;BME280;19250;42.646;26.980;2023-01-28T07:12:39;98575.34;;;3.68;100.00
12799;BME280;19250;42.646;26.980;2023-01-28T07:15:08;98583.41;;;3.55;100.00
12799;BME280;19250;42.646;26.980;2023-01-28T07:17:38;98592.34;;;3.75;100.00
12799;BME280;19250;42.646;26.980;2023-01-28T07:20:06;98588.25;;;3.71;100.00
12799;BME280;19250;42.646;26.980;2023-01-28T07:22:34;98599.03;;;3.79;100.00
12799;BME280;19250;42.646;26.980;2023-01-28T07:25:02;98604.31;;;3.79;100.00
12799;BME280;19250;42.646;26.980;2023-01-28T07:27:31;98610.47;;;3.89;100.00
12799;BME280;19250;42.646;26.980;2023-01-28T07:29:58;98599.16;;;3.77;100.00
12799;BME280;19250;42.646;26.980;2023-01-28T07:32:25;98613.94;;;3.69;100.00
12799;BME280;19250;42.646;26.980;2023-01-28T07:34:53;98608.50;;;3.70;100.00
12799;BME280;19250;42.646;26.980;2023-01-28T07:37:20;98597.78;;;3.94;100.00
12799;BME280;19250;42.646;26.980;2023-01-28T07:39:48;98573.38;;;3.49;100.00
12799;BME280;19250;42.646;26.980;2023-01-28T07:42:15;98607.84;;;3.89;100.00
12799;BME280;19250;42.646;26.980;2023-01-28T07:44:44;98605.47;;;3.86;100.00
12799;BME280;19250;42.646;26.980;2023-01-28T07:47:11;98602.63;;;3.78;100.00
12799;BME280;19250;42.646;26.980;2023-01-28T07:49:38;98611.22;;;3.91;100.00
12799;BME280;19250;42.646;26.980;2023-01-28T07:52:06;98588.03;;;3.95;100.00
12799;BME280;19250;42.646;26.980;2023-01-28T07:54:33;98608.97;;;4.07;100.00
12799;BME280;19250;42.646;26.980;2023-01-28T07:57:00;98542.06;;;3.35;100.00
12799;BME280;19250;42.646;26.980;2023-01-28T07:59:27;98617.63;;;3.98;100.00
12799;BME280;19250;42.646;26.980;2023-01-28T08:01:56;98619.91;;;4.23;100.00
12799;BME280;19250;42.646;26.980;2023-01-28T08:04:23;98613.03;;;4.11;100.00
12799;BME280;19250;42.646;26.980;2023-01-28T08:06:50;98598.78;;;4.44;100.00
12799;BME280;19250;42.646;26.980;2023-01-28T08:09:17;98620.63;;;4.25;100.00
12799;BME280;19250;42.646;26.980;2023-01-28T08:11:45;98618.97;;;4.24;100.00
12799;BME280;19250;42.646;26.980;2023-01-28T08:14:12;98624.84;;;4.37;100.00
12799;BME280;19250;42.646;26.980;2023-01-28T08:16:39;98627.38;;;4.39;100.00
12799;BME280;19250;42.646;26.980;2023-01-28T08:19:08;98580.25;;;4.34;100.00
12799;BME280;19250;42.646;26.980;2023-01-28T08:21:35;98624.66;;;4.71;100.00
12799;BME280;19250;42.646;26.980;2023-01-28T08:24:03;98645.59;;;4.93;100.00
12799;BME280;19250;42.646;26.980;2023-01-28T08:26:30;98637.50;;;4.85;100.00
12799;BME280;19250;42.646;26.980;2023-01-28T08:28:57;98632.78;;;4.37;100.00
12799;BME280;19250;42.646;26.980;2023-01-28T08:31:25;98622.88;;;4.51;100.00
12799;BME280;19250;42.646;26.980;2023-01-28T08:33:53;98644.25;;;4.48;100.00
12799;BME280;19250;42.646;26.980;2023-01-28T08:36:22;98564.69;;;4.31;100.00
12799;BME280;19250;42.646;26.980;2023-01-28T08:38:51;98660.34;;;4.95;100.00
12799;BME280;19250;42.646;26.980;2023-01-28T08:41:19;98653.91;;;4.58;100.00
12799;BME280;19250;42.646;26.980;2023-01-28T08:43:47;98662.13;;;4.65;100.00
12799;BME280;19250;42.646;26.980;2023-01-28T08:46:14;98652.66;;;4.62;100.00
12799;BME280;19250;42.646;26.980;2023-01-28T08:48:42;98654.94;;;4.67;100.00
12799;BME280;19250;42.646;26.980;2023-01-28T08:51:09;98653.72;;;4.71;100.00
12799;BME280;19250;42.646;26.980;2023-01-28T08:53:38;98645.97;;;4.79;100.00
12799;BME280;19250;42.646;26.980;2023-01-28T08:56:05;98655.63;;;4.99;100.00
12799;BME280;19250;42.646;26.980;2023-01-28T08:58:33;98649.66;;;4.97;100.00
12799;BME280;19250;42.646;26.980;2023-01-28T09:01:03;98648.59;;;5.09;100.00
12799;BME280;19250;42.646;26.980;2023-01-28T09:03:30;98653.75;;;4.60;100.00
12799;BME280;19250;42.646;26.980;2023-01-28T09:05:59;98654.50;;;4.92;100.00
12799;BME280;19250;42.646;26.980;2023-01-28T09:08:27;98625.22;;;4.74;100.00
12799;BME280;19250;42.646;26.980;2023-01-28T09:10:56;98651.25;;;5.09;100.00
12799;BME280;19250;42.646;26.980;2023-01-28T09:13:24;98628.22;;;4.60;100.00
12799;BME280;19250;42.646;26.980;2023-01-28T09:15:53;98661.28;;;4.85;100.00
12799;BME280;19250;42.646;26.980;2023-01-28T09:18:20;98652.97;;;5.20;100.00
12799;BME280;19250;42.646;26.980;2023-01-28T09:20:47;98658.53;;;4.96;100.00
12799;BME280;19250;42.646;26.980;2023-01-28T09:23:14;98652.63;;;5.04;100.00
12799;BME280;19250;42.646;26.980;2023-01-28T09:25:41;98639.09;;;4.97;100.00
12799;BME280;19250;42.646;26.980;2023-01-28T09:28:10;98644.31;;;4.87;100.00
12799;BME280;19250;42.646;26.980;2023-01-28T09:30:37;98629.59;;;4.85;100.00
12799;BME280;19250;42.646;26.980;2023-01-28T09:33:06;98640.41;;;5.12;100.00
12799;BME280;19250;42.646;26.980;2023-01-28T09:35:33;98643.13;;;5.31;100.00
12799;BME280;19250;42.646;26.980;2023-01-28T09:38:01;98649.25;;;5.41;100.00
12799;BME280;19250;42.646;26.980;2023-01-28T09:40:35;98612.31;;;5.11;100.00
12799;BME280;19250;42.646;26.980;2023-01-28T09:43:18;98649.97;;;5.43;100.00
12799;BME280;19250;42.646;26.980;2023-01-28T09:45:49;98657.16;;;5.22;100.00
12799;BME280;19250;42.646;26.980;2023-01-28T09:48:20;98646.84;;;5.19;100.00
12799;BME280;19250;42.646;26.980;2023-01-28T09:50:50;98629.72;;;5.23;100.00
12799;BME280;19250;42.646;26.980;2023-01-28T09:53:20;98649.13;;;5.43;100.00
12799;BME280;19250;42.646;26.980;2023-01-28T09:55:53;98661.59;;;5.22;100.00
12799;BME280;19250;42.646;26.980;2023-01-28T09:58:23;98659.81;;;5.32;100.00
12799;BME280;19250;42.646;26.980;2023-01-28T10:00:54;98648.75;;;5.17;100.00
12799;BME280;19250;42.646;26.980;2023-01-28T10:03:34;98669.75;;;5.09;100.00
12799;BME280;19250;42.646;26.980;2023-01-28T10:06:13;98658.56;;;5.36;100.00
12799;BME280;19250;42.646;26.980;2023-01-28T10:08:59;98663.66;;;5.68;100.00
12799;BME280;19250;42.646;26.980;2023-01-28T10:11:42;98672.66;;;5.46;100.00
12799;BME280;19250;42.646;26.980;2023-01-28T10:14:23;98666.94;;;5.50;100.00
12799;BME280;19250;42.646;26.980;2023-01-28T10:16:57;98668.84;;;5.29;100.00
12799;BME280;19250;42.646;26.980;2023-01-28T10:19:28;98660.31;;;5.56;100.00
12799;BME280;19250;42.646;26.980;2023-01-28T10:21:58;98667.69;;;5.53;100.00
12799;BME280;19250;42.646;26.980;2023-01-28T10:24:30;98665.34;;;5.78;100.00
12799;BME280;19250;42.646;26.980;2023-01-28T10:27:00;98638.78;;;5.80;100.00
12799;BME280;19250;42.646;26.980;2023-01-28T10:29:32;98658.16;;;6.19;100.00
12799;BME280;19250;42.646;26.980;2023-01-28T10:32:03;98666.94;;;5.90;100.00
12799;BME280;19250;42.646;26.980;2023-01-28T10:34:32;98674.06;;;5.90;100.00
12799;BME280;19250;42.646;26.980;2023-01-28T10:36:59;98638.75;;;5.70;100.00
12799;BME280;19250;42.646;26.980;2023-01-28T10:39:27;98570.38;;;5.37;100.00
12799;BME280;19250;42.646;26.980;2023-01-28T10:41:56;98653.97;;;5.78;100.00
12799;BME280;19250;42.646;26.980;2023-01-28T10:44:31;98659.56;;;5.94;100.00
12799;BME280;19250;42.646;26.980;2023-01-28T10:47:06;98648.56;;;5.89;100.00
12799;BME280;19250;42.646;26.980;2023-01-28T10:49:40;98672.41;;;6.08;100.00
12799;BME280;19250;42.646;26.980;2023-01-28T10:52:12;98681.66;;;5.83;100.00
12799;BME280;19250;42.646;26.980;2023-01-28T10:54:39;98690.06;;;5.98;100.00
12799;BME280;19250;42.646;26.980;2023-01-28T10:57:11;98682.41;;;6.05;100.00
12799;BME280;19250;42.646;26.980;2023-01-28T10:59:41;98687.06;;;5.72;100.00
12799;BME280;19250;42.646;26.980;2023-01-28T11:02:30;98688.56;;;6.05;100.00
12799;BME280;19250;42.646;26.980;2023-01-28T11:05:04;98684.91;;;6.06;100.00
12799;BME280;19250;42.646;26.980;2023-01-28T11:07:32;98687.97;;;6.01;100.00
12799;BME280;19250;42.646;26.980;2023-01-28T11:09:59;98689.91;;;5.99;100.00
12799;BME280;19250;42.646;26.980;2023-01-28T11:12:28;98696.63;;;6.51;100.00
12799;BME280;19250;42.646;26.980;2023-01-28T11:14:58;98699.47;;;5.72;100.00
12799;BME280;19250;42.646;26.980;2023-01-28T11:17:28;98696.22;;;5.59;100.00
12799;BME280;19250;42.646;26.980;2023-01-28T11:19:57;98685.47;;;5.50;100.00
12799;BME280;19250;42.646;26.980;2023-01-28T11:22:30;98701.44;;;5.39;100.00
12799;BME280;19250;42.646;26.980;2023-01-28T11:24:59;98706.09;;;5.26;100.00
12799;BME280;19250;42.646;26.980;2023-01-28T11:27:29;98696.56;;;5.35;100.00
12799;BME280;19250;42.646;26.980;2023-01-28T11:30:00;98704.94;;;5.10;100.00
12799;BME280;19250;42.646;26.980;2023-01-28T11:32:29;98709.00;;;4.93;100.00
12799;BME280;19250;42.646;26.980;2023-01-28T11:34:57;98704.94;;;4.68;100.00
12799;BME280;19250;42.646;26.980;2023-01-28T11:37:26;98704.69;;;4.92;100.00
12799;BME280;19250;42.646;26.980;2023-01-28T11:40:02;98708.09;;;4.62;100.00
12799;BME280;19250;42.646;26.980;2023-01-28T11:42:30;98713.97;;;4.45;100.00
12799;BME280;19250;42.646;26.980;2023-01-28T11:44:59;98707.97;;;4.84;100.00
12799;BME280;19250;42.646;26.980;2023-01-28T11:47:39;98703.38;;;4.77;100.00
12799;BME280;19250;42.646;26.980;2023-01-28T11:50:23;98711.06;;;4.69;100.00
12799;BME280;19250;42.646;26.980;2023-01-28T11:56:10;98644.31;;;3.84;100.00
12799;BME280;19250;42.646;26.980;2023-01-28T11:58:46;98715.84;;;4.22;100.00
12799;BME280;19250;42.646;26.980;2023-01-28T12:01:26;98728.72;;;4.48;100.00
12799;BME280;19250;42.646;26.980;2023-01-28T12:04:16;98726.00;;;4.59;100.00
12799;BME280;19250;42.646;26.980;2023-01-28T12:06:53;98728.34;;;4.52;100.00
12799;BME280;19250;42.646;26.980;2023-01-28T12:09:27;98726.31;;;4.65;100.00
12799;BME280;19250;42.646;26.980;2023-01-28T12:12:10;98712.50;;;4.52;100.00
12799;BME280;19250;42.646;26.980;2023-01-28T12:17:49;98734.22;;;4.24;100.00
12799;BME280;19250;42.646;26.980;2023-01-28T12:20:24;98703.06;;;4.38;100.00
12799;BME280;19250;42.646;26.980;2023-01-28T12:23:19;98734.00;;;4.89;100.00
12799;BME280;19250;42.646;26.980;2023-01-28T12:26:03;98731.16;;;5.02;100.00
12799;BME280;19250;42.646;26.980;2023-01-28T12:31:45;98727.75;;;5.50;100.00
12799;BME280;19250;42.646;26.980;2023-01-28T12:34:34;98731.16;;;5.22;100.00
12799;BME280;19250;42.646;26.980;2023-01-28T12:37:10;98734.75;;;5.21;100.00
12799;BME280;19250;42.646;26.980;2023-01-28T12:39:52;98725.81;;;4.51;100.00
12799;BME280;19250;42.646;26.980;2023-01-28T12:42:30;98732.00;;;4.61;100.00
12799;BME280;19250;42.646;26.980;2023-01-28T12:45:03;98746.63;;;4.65;100.00
12799;BME280;19250;42.646;26.980;2023-01-28T12:47:39;98738.31;;;4.90;100.00
12799;BME280;19250;42.646;26.980;2023-01-28T12:50:15;98713.69;;;4.27;100.00
12799;BME280;19250;42.646;26.980;2023-01-28T12:52:46;98747.00;;;4.39;100.00
12799;BME280;19250;42.646;26.980;2023-01-28T12:55:19;98741.84;;;4.06;100.00
12799;BME280;19250;42.646;26.980;2023-01-28T12:57:47;98741.13;;;3.93;100.00
12799;BME280;19250;42.646;26.980;2023-01-28T13:00:21;98729.03;;;4.22;100.00
12799;BME280;19250;42.646;26.980;2023-01-28T13:02:55;98745.31;;;4.38;100.00
12799;BME280;19250;42.646;26.980;2023-01-28T13:05:33;98707.91;;;4.33;100.00
12799;BME280;19250;42.646;26.980;2023-01-28T13:08:09;98757.50;;;4.51;100.00
12799;BME280;19250;42.646;26.980;2023-01-28T13:10:41;98761.50;;;4.66;100.00
12799;BME280;19250;42.646;26.980;2023-01-28T13:13:14;98754.38;;;4.98;100.00
12799;BME280;19250;42.646;26.980;2023-01-28T13:15:43;98766.84;;;4.96;100.00
12799;BME280;19250;42.646;26.980;2023-01-28T13:18:29;98768.97;;;4.81;100.00